createdAt,value
2023-05-23T00:01:47.069Z,47.36
2023-05-23T00:07:09.013Z,47.18
2023-05-23T00:12:30.813Z,47.15
2023-05-23T00:17:53.411Z,47.64
2023-05-23T00:23:19.527Z,47.58
2023-05-23T00:28:41.500Z,47.41
2023-05-23T00:34:03.428Z,47.38
2023-05-23T00:39:25.560Z,47.40
2023-05-23T00:44:48.682Z,47.17
2023-05-23T00:50:12.690Z,47.07
2023-05-23T00:55:34.831Z,47.49
2023-05-23T01:00:56.709Z,47.24
2023-05-23T01:06:18.918Z,46.97
2023-05-23T01:11:49.221Z,47.23
2023-05-23T01:17:20.400Z,47.11
2023-05-23T01:23:03.070Z,46.92
2023-05-23T01:28:29.865Z,46.80
2023-05-23T01:33:53.702Z,47.09
2023-05-23T01:39:15.734Z,47.10
2023-05-23T01:44:39.626Z,46.86
2023-05-23T01:50:02.744Z,46.98
2023-05-23T01:55:26.744Z,46.61
2023-05-23T02:00:48.663Z,46.74
2023-05-23T02:06:11.123Z,46.52
2023-05-23T02:11:32.991Z,46.69
2023-05-23T02:16:55.225Z,46.92
2023-05-23T02:22:17.257Z,46.59
2023-05-23T02:27:39.255Z,46.68
2023-05-23T02:33:05.828Z,46.00
2023-05-23T02:38:27.714Z,46.38
2023-05-23T02:43:49.562Z,46.39
2023-05-23T02:49:11.414Z,45.92
2023-05-23T02:54:33.210Z,45.88
2023-05-23T02:59:55.171Z,45.81
2023-05-23T03:05:17.350Z,45.82
2023-05-23T03:10:39.308Z,45.75
2023-05-23T03:16:01.288Z,46.02
2023-05-23T03:21:23.113Z,45.96
2023-05-23T03:26:45.445Z,45.76
2023-05-23T03:32:07.523Z,45.87
2023-05-23T03:37:29.459Z,45.36
2023-05-23T03:43:06.058Z,45.32
2023-05-23T03:48:28.044Z,45.42
2023-05-23T03:53:49.846Z,45.36
2023-05-23T03:59:11.659Z,45.86
2023-05-23T04:04:33.623Z,45.51
2023-05-23T04:09:55.515Z,45.36
2023-05-23T04:15:18.201Z,45.57
2023-05-23T04:20:40.050Z,45.72
2023-05-23T04:26:01.972Z,45.45
2023-05-23T04:31:24.036Z,45.62
2023-05-23T04:36:45.954Z,45.36
2023-05-23T04:42:07.826Z,45.75
2023-05-23T04:47:29.643Z,45.76
2023-05-23T04:52:51.469Z,45.66
2023-05-23T04:58:13.643Z,45.35
2023-05-23T05:03:35.758Z,45.03
2023-05-23T05:08:57.590Z,45.21
2023-05-23T05:14:19.423Z,45.29
2023-05-23T05:19:41.360Z,45.22
2023-05-23T05:25:04.051Z,45.66
2023-05-23T05:30:25.860Z,45.92
2023-05-23T05:35:47.745Z,45.82
2023-05-23T05:41:09.807Z,45.37
2023-05-23T05:46:31.717Z,45.44
2023-05-23T05:51:53.589Z,45.52
2023-05-23T05:57:15.438Z,45.70
2023-05-23T06:02:37.288Z,45.64
2023-05-23T06:07:59.122Z,45.09
2023-05-23T06:13:20.946Z,44.85
2023-05-23T06:18:42.772Z,45.26
2023-05-23T06:24:04.848Z,44.95
2023-05-23T06:29:26.748Z,44.95
2023-05-23T06:34:48.616Z,44.59
2023-05-23T06:40:11.265Z,45.05
2023-05-23T06:45:35.424Z,45.00
2023-05-23T06:50:57.354Z,44.89
2023-05-23T06:56:19.381Z,44.51
2023-05-23T07:01:41.310Z,44.54
2023-05-23T07:07:03.281Z,44.29
2023-05-23T07:12:25.114Z,43.98
2023-05-23T07:17:47.010Z,44.26
2023-05-23T07:23:08.882Z,43.74
2023-05-23T07:28:30.748Z,43.74
2023-05-23T07:33:57.031Z,43.18
2023-05-23T07:39:22.973Z,43.16
2023-05-23T07:44:45.043Z,43.21
2023-05-23T07:50:07.667Z,42.73
2023-05-23T07:55:29.575Z,43.12
2023-05-23T08:00:52.949Z,42.99
2023-05-23T08:06:15.211Z,42.56
2023-05-23T08:11:37.018Z,42.94
2023-05-23T08:16:59.097Z,42.62
2023-05-23T08:22:21.003Z,42.54
2023-05-23T08:27:42.836Z,42.08
2023-05-23T08:33:07.813Z,42.11
2023-05-23T08:38:30.008Z,42.47
2023-05-23T08:43:52.071Z,42.47
2023-05-23T08:49:18.090Z,42.49
2023-05-23T08:54:44.043Z,42.07
2023-05-23T09:00:11.371Z,42.29
2023-05-23T09:05:33.720Z,42.01
2023-05-23T09:10:56.174Z,41.96
2023-05-23T09:16:19.455Z,41.58
2023-05-23T09:21:45.584Z,41.60
2023-05-23T09:27:08.584Z,41.12
2023-05-23T09:32:30.483Z,41.26
2023-05-23T09:37:56.413Z,40.97
2023-05-23T09:43:19.025Z,41.11
2023-05-23T09:48:40.982Z,40.77
2023-05-23T09:54:02.830Z,40.88
2023-05-23T09:59:29.420Z,40.78
2023-05-23T10:04:53.197Z,40.60
2023-05-23T10:10:15.924Z,40.65
2023-05-23T10:15:41.209Z,40.62
2023-05-23T10:21:10.026Z,40.20
2023-05-23T10:26:32.445Z,40.65
2023-05-23T10:31:56.699Z,40.16
2023-05-23T10:37:47.400Z,40.40
2023-05-23T10:43:45.040Z,39.95
2023-05-23T10:49:09.025Z,39.92
2023-05-23T10:54:36.451Z,39.81
2023-05-23T10:59:58.686Z,39.62
2023-05-23T11:05:23.783Z,39.94
2023-05-23T11:11:04.445Z,39.53
2023-05-23T11:16:31.488Z,39.77
2023-05-23T11:22:00.344Z,39.22
2023-05-23T11:27:42.110Z,38.89
2023-05-23T11:33:14.106Z,39.40
2023-05-23T11:38:36.310Z,39.31
2023-05-23T11:44:00.080Z,38.94
2023-05-23T11:49:22.086Z,38.94
2023-05-23T11:54:44.245Z,38.53
2023-05-23T12:00:10.366Z,38.85
2023-05-23T12:05:32.292Z,38.23
2023-05-23T12:10:57.823Z,38.42
2023-05-23T12:16:19.649Z,38.02
2023-05-23T12:21:48.984Z,37.98
2023-05-23T12:27:11.010Z,37.68
2023-05-23T12:32:33.609Z,38.05
2023-05-23T12:37:57.081Z,37.82
2023-05-23T12:43:19.093Z,37.56
2023-05-23T12:48:41.386Z,37.84
2023-05-23T12:54:03.317Z,37.58
2023-05-23T12:59:25.142Z,37.28
2023-05-23T13:04:46.968Z,37.42
2023-05-23T13:10:09.608Z,37.19
2023-05-23T13:15:32.593Z,37.05
2023-05-23T13:20:56.510Z,37.15
2023-05-23T13:26:18.353Z,37.38
2023-05-23T13:31:40.314Z,37.08
2023-05-23T13:37:02.281Z,36.85
2023-05-23T13:42:24.198Z,36.79
2023-05-23T13:47:46.881Z,37.71
2023-05-23T13:53:14.772Z,37.82
2023-05-23T13:58:36.605Z,37.77
2023-05-23T14:03:58.473Z,37.71
2023-05-23T14:09:22.308Z,37.37
2023-05-23T14:14:45.077Z,37.38
2023-05-23T14:20:08.048Z,37.83
2023-05-23T14:25:30.846Z,37.62
2023-05-23T14:30:52.642Z,37.80
2023-05-23T14:36:14.509Z,37.65
2023-05-23T14:41:36.828Z,37.46
2023-05-23T14:46:58.853Z,37.38
2023-05-23T14:52:20.704Z,37.71
2023-05-23T14:57:43.401Z,37.59
2023-05-23T15:03:05.386Z,37.39
2023-05-23T15:08:27.278Z,37.23
2023-05-23T15:13:49.086Z,37.41
2023-05-23T15:19:11.317Z,37.48
2023-05-23T15:24:35.004Z,37.56
2023-05-23T15:29:57.059Z,37.90
2023-05-23T15:35:19.885Z,37.49
2023-05-23T15:40:42.057Z,37.18
2023-05-23T15:46:05.207Z,37.18
2023-05-23T15:51:27.154Z,36.80
2023-05-23T15:56:49.288Z,37.11
2023-05-23T16:02:11.231Z,36.93
2023-05-23T16:07:33.124Z,36.83
2023-05-23T16:12:54.955Z,37.02
2023-05-23T16:18:16.809Z,36.73
2023-05-23T16:23:38.644Z,36.65
2023-05-23T16:29:00.484Z,36.97
2023-05-23T16:34:22.304Z,37.00
2023-05-23T16:39:44.159Z,37.05
2023-05-23T16:45:06.849Z,36.86
2023-05-23T16:50:28.712Z,37.31
2023-05-23T16:55:50.894Z,36.81
2023-05-23T17:01:13.564Z,37.34
2023-05-23T17:06:35.474Z,37.36
2023-05-23T17:11:57.391Z,37.06
2023-05-23T17:17:19.358Z,37.56
2023-05-23T17:22:42.056Z,37.47
2023-05-23T17:28:03.936Z,37.32
2023-05-23T17:33:25.890Z,37.47
2023-05-23T17:38:47.762Z,37.40
2023-05-23T17:44:09.680Z,37.16
2023-05-23T17:49:31.598Z,37.26
2023-05-23T17:54:53.475Z,37.40
2023-05-23T18:00:16.501Z,37.87
2023-05-23T18:05:38.402Z,37.93
2023-05-23T18:11:00.358Z,38.02
2023-05-23T18:16:22.451Z,37.80
2023-05-23T18:21:44.452Z,38.01
2023-05-23T18:27:06.522Z,37.99
2023-05-23T18:32:28.370Z,38.12
2023-05-23T18:37:50.311Z,38.00
2023-05-23T18:43:13.685Z,38.32
2023-05-23T18:48:36.138Z,38.50
2023-05-23T18:53:58.496Z,38.09
2023-05-23T18:59:20.350Z,38.20
2023-05-23T19:04:42.257Z,38.52
2023-05-23T19:10:04.373Z,38.13
2023-05-23T19:15:26.286Z,38.12
2023-05-23T19:20:48.407Z,38.63
2023-05-23T19:26:10.588Z,38.80
2023-05-23T19:31:32.706Z,38.70
2023-05-23T19:36:54.725Z,38.57
2023-05-23T19:42:16.952Z,38.70
2023-05-23T19:47:38.914Z,39.26
2023-05-23T19:53:00.874Z,38.86
2023-05-23T19:58:22.750Z,38.89
2023-05-23T20:03:44.721Z,38.86
2023-05-23T20:09:06.629Z,39.08
2023-05-23T20:14:30.988Z,39.24
2023-05-23T20:19:52.960Z,38.99
2023-05-23T20:25:14.893Z,38.92
2023-05-23T20:30:37.021Z,39.24
2023-05-23T20:35:59.465Z,39.40
2023-05-23T20:41:21.770Z,39.18
2023-05-23T20:46:46.137Z,39.13
2023-05-23T20:52:08.384Z,39.26
2023-05-23T20:57:30.430Z,39.27
2023-05-23T21:02:52.310Z,39.51
2023-05-23T21:08:14.282Z,39.29
2023-05-23T21:13:39.001Z,39.82
2023-05-23T21:19:01.711Z,39.85
2023-05-23T21:24:24.524Z,39.55
2023-05-23T21:29:47.717Z,39.86
2023-05-23T21:35:09.803Z,40.12
2023-05-23T21:40:31.960Z,39.97
2023-05-23T21:45:53.780Z,40.39
2023-05-23T21:51:15.807Z,40.53
2023-05-23T21:56:37.692Z,40.22
2023-05-23T22:01:59.916Z,40.32
2023-05-23T22:07:25.526Z,40.48
2023-05-23T22:12:47.370Z,40.73
2023-05-23T22:18:09.260Z,40.57
2023-05-23T22:23:32.035Z,40.70
2023-05-23T22:28:54.589Z,41.03
2023-05-23T22:34:16.862Z,40.87
2023-05-23T22:39:38.710Z,41.32
2023-05-23T22:45:00.904Z,41.32
2023-05-23T22:50:23.116Z,40.97
2023-05-23T22:55:44.909Z,41.28
2023-05-23T23:01:06.806Z,41.55
2023-05-23T23:06:29.587Z,41.45
2023-05-23T23:11:51.411Z,41.65
2023-05-23T23:17:13.855Z,41.33
2023-05-23T23:22:36.653Z,41.36
2023-05-23T23:27:58.463Z,41.33
2023-05-23T23:33:20.293Z,41.51
2023-05-23T23:38:42.143Z,41.77
2023-05-23T23:44:04.137Z,41.68
2023-05-23T23:49:25.962Z,41.88
2023-05-23T23:54:47.746Z,41.99
